Time;durP1;ratioP1;P1;durP2;ratioP2;P2;SDS_P1;SDS_P2;PMS_P1;PMS_P2;Temp;Humidity;BMP_temperature;BMP_pressure;BME280_temperature;BME280_humidity;BME280_pressure;Samples;Min_cycle;Max_cycle;Signal;HPM_P1;HPM_P2
2021/06/10 02:24:17;;;;;;;19.40;12.32;;;;;;;16.28;100.00;101387.56;5145380;27;20707;-74
2021/06/10 02:26:43;;;;;;;20.90;13.48;;;;;;;16.56;100.00;101382.41;5105993;28;20042;-74
2021/06/10 02:29:09;;;;;;;15.48;11.90;;;;;;;16.72;100.00;101384.88;5107483;28;20038;-74
2021/06/10 02:31:35;;;;;;;14.43;10.82;;;;;;;16.92;100.00;101386.94;5105720;28;20118;-74
2021/06/10 02:34:03;;;;;;;14.48;11.15;;;;;;;16.98;100.00;101379.19;5107912;28;20411;-74
2021/06/10 02:36:29;;;;;;;13.35;10.32;;;;;;;17.01;100.00;101379.19;5106843;28;20472;-74
2021/06/10 02:39:04;;;;;;;13.13;10.43;;;;;;;16.74;100.00;101382.53;5108350;28;20408;-74
2021/06/10 02:41:30;;;;;;;15.60;10.55;;;;;;;16.70;100.00;101376.28;5092880;28;20484;-74
2021/06/10 02:43:57;;;;;;;13.93;11.07;;;;;;;16.85;100.00;101375.22;5107277;28;20004;-74
2021/06/10 02:46:25;;;;;;;15.18;11.13;;;;;;;16.75;100.00;101382.16;5102755;28;20036;-74
2021/06/10 02:48:52;;;;;;;16.02;10.80;;;;;;;16.80;100.00;101383.75;5107643;28;20031;-74
2021/06/10 02:51:20;;;;;;;12.98;10.65;;;;;;;16.92;100.00;101380.69;5102229;28;20448;-74
2021/06/10 02:53:47;;;;;;;12.00;10.23;;;;;;;16.79;100.00;101374.03;5098419;28;20023;-74
2021/06/10 02:56:16;;;;;;;12.35;10.27;;;;;;;16.63;100.00;101377.00;5098955;28;20415;-73
2021/06/10 02:58:44;;;;;;;13.73;10.80;;;;;;;16.48;100.00;101380.78;5106883;28;20028;-75
2021/06/10 03:01:11;;;;;;;13.27;10.30;;;;;;;16.31;100.00;101372.44;5105395;28;20119;-75
2021/06/10 03:03:38;;;;;;;13.75;10.30;;;;;;;16.51;100.00;101379.25;5102063;28;20057;-75
2021/06/10 03:06:05;;;;;;;14.35;10.63;;;;;;;16.49;100.00;101373.41;5104005;28;20111;-75
2021/06/10 03:08:31;;;;;;;13.63;9.98;;;;;;;16.38;100.00;101367.84;5105569;28;20034;-75
2021/06/10 03:10:59;;;;;;;12.30;9.25;;;;;;;16.51;100.00;101371.88;5106309;28;20062;-75
2021/06/10 03:13:26;;;;;;;13.18;9.70;;;;;;;16.65;100.00;101373.91;5094178;28;20039;-75
2021/06/10 03:15:53;;;;;;;12.20;9.73;;;;;;;16.57;100.00;101375.03;5106641;28;20030;-75
2021/06/10 03:18:19;;;;;;;14.57;10.00;;;;;;;16.56;100.00;101376.19;5106558;28;20050;-75
2021/06/10 03:20:48;;;;;;;12.52;9.60;;;;;;;16.46;100.00;101376.84;5103562;28;20035;-74
2021/06/10 03:23:14;;;;;;;11.50;9.70;;;;;;;16.28;100.00;101380.19;5118396;27;20046;-75
2021/06/10 03:25:41;;;;;;;11.60;9.38;;;;;;;16.52;100.00;101378.09;5125957;27;20506;-75
2021/06/10 03:28:08;;;;;;;12.10;9.13;;;;;;;16.55;100.00;101369.19;5088009;28;20082;-75
2021/06/10 03:30:35;;;;;;;13.60;8.48;;;;;;;16.58;100.00;101376.59;5112113;28;20035;-75
2021/06/10 03:33:03;;;;;;;10.55;9.05;;;;;;;16.56;100.00;101379.69;5113099;28;20098;-73
2021/06/10 03:35:31;;;;;;;10.48;9.02;;;;;;;16.58;100.00;101379.31;5088013;28;20111;-73
2021/06/10 03:37:56;;;;;;;12.20;8.93;;;;;;;16.63;100.00;101373.50;5078679;28;20032;-73
2021/06/10 03:40:23;;;;;;;12.68;9.52;;;;;;;16.62;100.00;101382.84;5083314;28;20028;-73
2021/06/10 03:42:54;;;;;;;11.93;9.57;;;;;;;16.70;100.00;101381.75;5079919;28;20092;-73
2021/06/10 03:45:20;;;;;;;13.30;10.10;;;;;;;16.49;100.00;101379.63;5083331;28;20036;-73
2021/06/10 03:47:46;;;;;;;21.77;10.52;;;;;;;16.62;100.00;101378.19;5101706;28;20039;-73
2021/06/10 03:50:12;;;;;;;14.20;10.50;;;;;;;16.55;100.00;101382.78;5070459;28;20119;-73
2021/06/10 03:52:38;;;;;;;14.25;10.48;;;;;;;16.49;100.00;101385.06;5097247;28;20028;-73
2021/06/10 03:55:07;;;;;;;12.70;10.32;;;;;;;16.44;100.00;101381.88;5094243;28;20028;-73
2021/06/10 03:57:34;;;;;;;11.95;9.70;;;;;;;16.51;100.00;101385.47;5094384;28;20491;-73
2021/06/10 04:00:00;;;;;;;15.93;10.00;;;;;;;16.47;100.00;101381.13;5085837;28;20074;-73
2021/06/10 04:02:26;;;;;;;14.65;9.80;;;;;;;16.70;100.00;101382.53;5081844;28;20520;-73
2021/06/10 04:04:54;;;;;;;12.85;9.57;;;;;;;16.60;100.00;101383.22;5092187;28;20039;-73
2021/06/10 04:07:20;;;;;;;12.55;9.93;;;;;;;16.35;100.00;101373.25;5091003;28;20028;-73
2021/06/10 04:09:45;;;;;;;11.18;9.57;;;;;;;16.35;100.00;101374.06;5089764;28;20054;-73
2021/06/10 04:12:11;;;;;;;12.77;9.65;;;;;;;16.42;100.00;101362.44;5086628;28;20044;-73
2021/06/10 04:14:36;;;;;;;12.35;9.55;;;;;;;16.58;100.00;101363.00;5075534;28;20199;-74
2021/06/10 04:17:02;;;;;;;15.50;10.05;;;;;;;17.01;100.00;101368.31;5080294;28;20067;-74
2021/06/10 04:19:28;;;;;;;13.27;9.93;;;;;;;17.34;98.58;101370.06;5095615;28;20028;-74
2021/06/10 04:21:54;;;;;;;14.75;9.98;;;;;;;17.49;97.10;101366.25;5107318;28;20043;-73
2021/06/10 04:24:20;;;;;;;13.35;9.63;;;;;;;17.62;96.96;101372.91;5087838;28;20036;-73
2021/06/10 04:26:47;;;;;;;11.40;8.85;;;;;;;17.89;95.48;101363.25;5081222;28;20038;-73
2021/06/10 04:29:12;;;;;;;11.00;9.07;;;;;;;17.90;92.04;101370.25;5096891;28;20043;-73
2021/06/10 04:31:38;;;;;;;11.23;8.65;;;;;;;18.23;91.36;101373.81;5092765;28;20036;-73
2021/06/10 04:34:03;;;;;;;11.27;9.07;;;;;;;18.10;92.11;101376.13;5078118;28;20028;-73
2021/06/10 04:36:29;;;;;;;11.52;8.57;;;;;;;18.15;90.46;101373.03;5087469;28;20472;-74
2021/06/10 04:38:54;;;;;;;10.40;7.88;;;;;;;18.46;88.60;101374.22;5103003;28;20106;-73
2021/06/10 04:41:20;;;;;;;11.57;8.50;;;;;;;18.56;88.05;101379.69;5094329;28;20074;-73
2021/06/10 04:43:46;;;;;;;10.70;8.13;;;;;;;18.53;86.61;101374.22;5088811;28;20024;-74
2021/06/10 04:46:11;;;;;;;10.13;8.02;;;;;;;18.61;88.10;101379.31;5084623;28;20032;-73
2021/06/10 04:48:37;;;;;;;10.23;7.60;;;;;;;18.77;87.49;101389.81;5089204;28;20028;-73
2021/06/10 04:51:04;;;;;;;10.73;8.05;;;;;;;18.84;87.90;101384.34;5091293;28;20024;-73
2021/06/10 04:53:29;;;;;;;10.50;8.00;;;;;;;18.99;86.60;101383.13;5081041;28;20031;-74
2021/06/10 04:55:55;;;;;;;10.20;7.28;;;;;;;19.13;85.83;101388.56;5083734;28;20028;-73
2021/06/10 04:58:20;;;;;;;11.60;8.18;;;;;;;19.30;84.56;101386.97;5082900;28;20535;-73
2021/06/10 05:00:46;;;;;;;9.35;7.78;;;;;;;19.24;82.64;101394.75;5083145;28;20021;-73
2021/06/10 05:03:11;;;;;;;10.07;7.43;;;;;;;19.28;83.11;101387.34;5099747;28;20031;-74
2021/06/10 05:05:41;;;;;;;9.35;7.22;;;;;;;19.30;83.48;101390.44;5073731;28;20035;-73
2021/06/10 05:08:07;;;;;;;11.32;8.02;;;;;;;19.48;83.94;101391.19;5076424;28;20150;-73
2021/06/10 05:10:32;;;;;;;9.15;6.82;;;;;;;19.29;83.41;101396.31;5084245;28;20045;-74
2021/06/10 05:12:58;;;;;;;11.95;7.40;;;;;;;19.61;84.03;101383.31;5102871;28;20019;-73
2021/06/10 05:15:23;;;;;;;12.40;7.63;;;;;;;19.87;81.85;101396.47;5089790;28;20059;-74
2021/06/10 05:17:49;;;;;;;8.02;6.18;;;;;;;20.14;80.49;101396.69;5083912;28;20106;-73
2021/06/10 05:20:16;;;;;;;10.50;7.00;;;;;;;20.37;78.48;101396.94;5091077;28;20036;-74
2021/06/10 05:22:41;;;;;;;10.98;7.00;;;;;;;20.60;76.75;101388.94;5093121;28;20082;-74
2021/06/10 05:25:07;;;;;;;11.27;6.75;;;;;;;20.87;75.17;101392.59;5080796;28;20458;-74
2021/06/10 05:27:34;;;;;;;9.18;6.32;;;;;;;21.26;74.37;101392.97;5089195;28;20114;-74
2021/06/10 05:30:00;;;;;;;9.25;5.90;;;;;;;21.38;74.48;101395.19;5086403;28;20024;-73
2021/06/10 05:32:26;;;;;;;6.45;5.75;;;;;;;21.51;73.14;101393.47;5093009;22;20045;-73
2021/06/10 05:34:52;;;;;;;7.30;5.50;;;;;;;21.38;72.99;101391.66;5060578;28;20064;-74
2021/06/10 05:37:17;;;;;;;10.60;5.78;;;;;;;21.46;73.31;101393.94;5046573;28;20468;-74
2021/06/10 05:39:43;;;;;;;5.65;4.85;;;;;;;21.66;72.83;101396.03;5058413;28;20942;-75
2021/06/10 05:42:09;;;;;;;7.05;5.30;;;;;;;21.95;70.94;101394.47;5061879;28;20102;-74
2021/06/10 05:44:35;;;;;;;7.65;5.35;;;;;;;21.72;70.84;101392.41;5063646;28;20055;-74
2021/06/10 05:47:00;;;;;;;9.73;5.43;;;;;;;22.07;70.21;101391.16;5050533;28;20056;-74
2021/06/10 05:49:26;;;;;;;9.95;4.90;;;;;;;22.49;71.17;101389.72;5066015;28;20119;-72
2021/06/10 05:51:51;;;;;;;8.57;4.55;;;;;;;22.61;68.29;101387.16;5069466;28;20020;-73
2021/06/10 05:54:17;;;;;;;6.13;4.70;;;;;;;22.70;67.82;101387.41;5063004;28;20073;-73
2021/06/10 05:56:43;;;;;;;6.85;5.00;;;;;;;22.88;66.92;101393.34;5061228;28;20480;-73
2021/06/10 05:59:08;;;;;;;6.50;4.72;;;;;;;22.71;65.32;101399.94;5062596;28;20040;-75
2021/06/10 06:01:34;;;;;;;6.15;4.95;;;;;;;22.84;65.43;101391.88;5055107;28;20036;-74
2021/06/10 06:03:59;;;;;;;5.20;4.40;;;;;;;22.86;66.60;101389.50;5058776;28;20073;-73
2021/06/10 06:06:25;;;;;;;7.15;4.35;;;;;;;22.98;67.15;101386.09;5031800;28;20031;-73
2021/06/10 06:08:51;;;;;;;5.45;4.57;;;;;;;23.01;65.37;101391.56;5042025;28;20047;-73
2021/06/10 06:11:18;;;;;;;7.28;5.53;;;;;;;23.40;64.01;101388.06;5040069;28;20036;-73
2021/06/10 06:16:16;;;;;;;;;;;;;;;23.29;64.63;101388.25;5064831;28;20051;-74
2021/06/10 06:18:42;;;;;;;5.00;4.40;;;;;;;23.39;66.20;101391.22;5063274;28;20001;-74
2021/06/10 06:21:08;;;;;;;7.30;4.30;;;;;;;23.38;64.88;101386.94;5067207;28;20431;-74
2021/06/10 06:23:33;;;;;;;4.97;4.32;;;;;;;23.47;64.74;101393.41;5048582;28;20016;-74
2021/06/10 06:26:00;;;;;;;9.45;4.65;;;;;;;23.66;66.46;101389.06;5062335;28;20035;-75
2021/06/10 06:28:26;;;;;;;7.35;4.63;;;;;;;23.73;64.68;101383.44;5068142;28;20032;-75
2021/06/10 06:30:52;;;;;;;7.07;4.53;;;;;;;23.96;63.55;101391.56;5064087;28;20036;-74
2021/06/10 06:33:18;;;;;;;8.82;4.47;;;;;;;23.96;65.81;101403.31;5064638;28;20191;-74
2021/06/10 06:35:44;;;;;;;8.45;4.25;;;;;;;23.61;65.31;101395.88;5064816;28;20103;-74
2021/06/10 06:38:10;;;;;;;6.72;3.80;;;;;;;23.89;65.27;101402.72;5069093;28;20218;-74
2021/06/10 06:40:36;;;;;;;6.32;3.78;;;;;;;23.99;63.82;101396.97;5045002;28;20498;-74
2021/06/10 06:43:01;;;;;;;7.00;3.75;;;;;;;24.02;60.91;101403.66;5068022;28;20024;-75
2021/06/10 06:45:27;;;;;;;3.70;3.40;;;;;;;24.13;60.33;101415.19;5046939;28;20036;-74
2021/06/10 06:47:53;;;;;;;4.05;3.33;;;;;;;24.31;61.80;101403.75;5050456;28;20060;-74
2021/06/10 06:50:19;;;;;;;4.65;3.38;;;;;;;24.37;61.20;101408.28;5063257;28;20024;-74
2021/06/10 06:52:45;;;;;;;6.47;3.90;;;;;;;24.42;59.74;101402.28;5065985;28;20044;-73
2021/06/10 06:55:11;;;;;;;4.97;3.60;;;;;;;24.50;61.45;101411.94;5060332;28;20083;-72
2021/06/10 06:57:37;;;;;;;5.82;3.42;;;;;;;24.60;62.44;101413.63;5041521;28;20032;-74
2021/06/10 07:00:04;;;;;;;4.70;3.28;;;;;;;24.72;62.00;101412.94;5062873;28;20032;-74
2021/06/10 07:02:30;;;;;;;7.28;3.17;;;;;;;24.73;61.04;101410.97;5041133;28;20040;-71
2021/06/10 07:04:55;;;;;;;3.85;3.20;;;;;;;24.88;61.00;101412.16;5066232;28;20094;-74
2021/06/10 07:07:21;;;;;;;7.90;2.83;;;;;;;25.16;58.63;101408.66;5068665;28;20485;-74
2021/06/10 07:09:46;;;;;;;5.35;3.03;;;;;;;25.03;55.42;101418.84;5069021;28;20036;-74
2021/06/10 07:12:12;;;;;;;7.65;2.75;;;;;;;25.51;56.79;101417.94;5066677;28;20411;-74
2021/06/10 07:14:38;;;;;;;3.92;2.78;;;;;;;25.66;54.75;101419.06;5052382;28;20467;-74
2021/06/10 07:17:03;;;;;;;4.60;2.17;;;;;;;25.74;54.86;101423.94;5071835;28;20405;-74
2021/06/10 07:19:29;;;;;;;6.57;2.60;;;;;;;25.83;54.21;101431.56;5066450;28;20400;-73
2021/06/10 07:21:54;;;;;;;5.35;2.50;;;;;;;25.84;53.70;101428.34;5069413;28;20072;-74
2021/06/10 07:24:20;;;;;;;10.02;2.50;;;;;;;26.00;53.16;101437.78;5071292;28;20027;-74
2021/06/10 07:26:46;;;;;;;4.05;2.60;;;;;;;25.77;52.62;101427.78;5067836;28;20514;-74
2021/06/10 07:29:13;;;;;;;7.43;2.38;;;;;;;26.03;54.07;101434.91;5051313;28;20059;-72
2021/06/10 07:31:39;;;;;;;3.60;2.05;;;;;;;26.30;53.73;101434.47;5070459;28;20036;-73
2021/06/10 07:34:06;;;;;;;7.25;2.90;;;;;;;26.40;51.98;101425.81;5053284;28;20034;-74
2021/06/10 07:36:35;;;;;;;6.35;2.75;;;;;;;26.16;47.97;101438.47;5066772;28;20305;-73
2021/06/10 07:39:04;;;;;;;8.68;2.75;;;;;;;26.28;49.13;101432.16;5068336;28;20396;-73
2021/06/10 07:41:30;;;;;;;8.57;2.97;;;;;;;26.48;49.45;101432.66;5070361;28;20093;-73
2021/06/10 07:43:56;;;;;;;4.78;3.42;;;;;;;26.37;48.46;101437.00;5066915;28;20020;-74
2021/06/10 07:46:21;;;;;;;8.40;2.90;;;;;;;26.43;49.28;101436.00;5064776;28;20036;-75
2021/06/10 07:48:47;;;;;;;5.35;2.38;;;;;;;26.68;49.15;101437.94;5045722;28;20090;-72
2021/06/10 07:51:13;;;;;;;8.23;2.60;;;;;;;26.74;49.12;101438.94;5042072;28;20032;-74
2021/06/10 07:53:39;;;;;;;12.05;3.45;;;;;;;26.74;46.85;101436.19;5061674;28;20048;-74
2021/06/10 07:56:05;;;;;;;14.52;3.70;;;;;;;27.00;48.60;101442.44;5066487;28;20056;-72
2021/06/10 07:58:34;;;;;;;16.85;4.03;;;;;;;27.00;48.14;101448.72;5048991;28;20535;-74
2021/06/10 08:01:00;;;;;;;4.72;3.30;;;;;;;27.24;46.43;101438.78;5061504;28;20397;-75
2021/06/10 08:03:25;;;;;;;5.40;3.15;;;;;;;27.15;48.28;101441.47;5060348;28;20032;-74
2021/06/10 08:05:52;;;;;;;8.23;3.30;;;;;;;27.37;47.81;101436.72;5061086;28;20037;-74
2021/06/10 08:08:18;;;;;;;7.10;3.20;;;;;;;27.22;46.08;101443.97;5064558;28;20032;-74
2021/06/10 08:10:45;;;;;;;6.18;3.30;;;;;;;27.07;48.14;101442.94;5059796;28;20048;-75
2021/06/10 08:13:13;;;;;;;6.32;3.47;;;;;;;27.70;47.34;101442.63;5068081;28;20033;-74
2021/06/10 08:15:39;;;;;;;7.85;3.95;;;;;;;27.88;46.10;101448.28;5070146;28;20599;-73
2021/06/10 08:18:05;;;;;;;5.65;3.47;;;;;;;27.98;46.11;101449.13;5069725;28;20032;-75
2021/06/10 08:20:31;;;;;;;6.57;4.00;;;;;;;28.06;45.72;101444.84;5063492;28;20701;-74
2021/06/10 08:22:59;;;;;;;6.30;4.60;;;;;;;28.24;46.84;101454.00;5069757;28;20108;-74
2021/06/10 08:25:29;;;;;;;11.75;5.85;;;;;;;27.71;45.84;101441.41;5070640;28;20034;-75
2021/06/10 08:27:57;;;;;;;7.05;4.53;;;;;;;27.72;48.39;101445.72;5063526;28;20690;-75
2021/06/10 08:30:23;;;;;;;7.93;3.92;;;;;;;28.10;48.88;101443.50;5067978;28;20038;-74
2021/06/10 08:32:49;;;;;;;6.45;4.63;;;;;;;28.49;48.49;101451.00;5062036;28;20108;-75
2021/06/10 08:35:14;;;;;;;9.27;6.30;;;;;;;28.68;46.71;101448.28;5069646;28;20477;-75
2021/06/10 08:37:41;;;;;;;9.40;6.07;;;;;;;28.48;47.05;101452.22;5063133;28;20033;-73
2021/06/10 08:40:10;;;;;;;8.32;5.68;;;;;;;28.67;46.80;101449.53;5069518;28;20115;-75
2021/06/10 08:42:41;;;;;;;10.27;6.20;;;;;;;28.74;47.99;101452.00;5063135;28;20108;-74
2021/06/10 08:45:10;;;;;;;;;;;;;;;28.62;48.24;101455.66;5069799;28;20068;-75
2021/06/10 08:47:41;;;;;;;6.72;5.70;;;;;;;28.81;47.57;101452.47;5068414;28;19958;-73
2021/06/10 08:50:09;;;;;;;11.48;5.32;;;;;;;28.82;46.90;101447.69;5045924;28;20059;-75
2021/06/10 08:52:36;;;;;;;8.68;6.20;;;;;;;28.91;47.86;101447.69;5051360;28;20768;-74
2021/06/10 08:55:03;;;;;;;10.75;5.97;;;;;;;28.93;48.47;101448.78;5047285;28;20040;-75
2021/06/10 08:57:28;;;;;;;12.02;6.38;;;;;;;29.00;47.81;101454.03;5051653;28;20107;-75
2021/06/10 08:59:54;;;;;;;8.77;5.85;;;;;;;28.99;47.17;101451.72;5062752;28;20211;-73
2021/06/10 09:02:20;;;;;;;9.80;5.88;;;;;;;29.13;46.65;101445.59;5068532;28;20047;-75
2021/06/10 09:04:45;;;;;;;9.77;6.88;;;;;;;29.28;47.21;101452.03;5049059;28;20034;-74
2021/06/10 09:07:11;;;;;;;9.60;5.90;;;;;;;29.42;45.73;101454.19;5068464;28;20095;-75
2021/06/10 09:09:39;;;;;;;11.45;7.00;;;;;;;29.50;45.71;101454.66;5044360;28;20460;-75
2021/06/10 09:12:11;;;;;;;11.80;6.53;;;;;;;29.59;45.59;101446.28;5064551;28;20040;-75
2021/06/10 09:15:03;;;;;;;9.70;6.20;;;;;;;29.76;45.41;101453.84;5061821;28;20027;-74
2021/06/10 09:17:31;;;;;;;8.20;5.70;;;;;;;29.87;44.85;101433.88;5066408;28;20070;-75
2021/06/10 09:19:56;;;;;;;9.40;6.40;;;;;;;30.15;44.25;101435.31;5064960;28;20585;-74
2021/06/10 09:22:27;;;;;;;5.60;4.93;;;;;;;29.99;45.35;101441.25;5068494;28;20116;-74
2021/06/10 09:25:03;;;;;;;6.53;5.30;;;;;;;29.71;43.52;101448.16;5069050;28;20056;-74
2021/06/10 09:27:29;;;;;;;7.90;6.95;;;;;;;29.33;43.08;101443.88;5065267;28;20480;-74
2021/06/10 09:29:56;;;;;;;8.02;6.15;;;;;;;29.83;43.93;101439.59;5048386;28;20043;-74
2021/06/10 09:32:26;;;;;;;11.07;6.93;;;;;;;29.70;43.71;101441.78;5067048;28;20090;-75
2021/06/10 09:34:58;;;;;;;9.90;7.40;;;;;;;29.81;41.68;101439.31;5062056;28;20044;-75
2021/06/10 09:37:33;;;;;;;7.80;6.28;;;;;;;29.87;43.57;101426.31;5065605;28;20032;-72
2021/06/10 09:40:06;;;;;;;10.55;5.90;;;;;;;30.00;45.97;101438.00;5065465;28;20074;-74
2021/06/10 09:42:35;;;;;;;11.70;6.78;;;;;;;30.24;45.08;101432.47;5044819;28;20025;-73
2021/06/10 09:45:04;;;;;;;9.00;6.43;;;;;;;30.17;46.03;101430.06;5068099;28;20384;-75
2021/06/10 09:47:35;;;;;;;17.75;7.47;;;;;;;30.17;44.72;101424.50;5051892;28;20573;-75
2021/06/10 09:50:18;;;;;;;9.73;6.88;;;;;;;30.59;44.14;101432.75;5048806;28;20024;-72
2021/06/10 09:52:56;;;;;;;12.13;7.85;;;;;;;30.84;43.18;101424.72;5062529;28;20031;-75
2021/06/10 09:55:27;;;;;;;12.18;7.95;;;;;;;30.74;42.82;101428.03;5050169;28;20462;-75
2021/06/10 09:57:55;;;;;;;13.77;7.65;;;;;;;30.85;43.74;101433.84;5041043;28;20564;-75
2021/06/10 10:00:26;;;;;;;10.90;7.50;;;;;;;30.60;43.60;101431.53;5066285;28;20063;-75
2021/06/10 10:02:52;;;;;;;10.35;7.35;;;;;;;30.48;44.14;101427.75;5061559;28;20541;-75
2021/06/10 10:05:22;;;;;;;12.75;8.20;;;;;;;31.04;42.94;101422.09;5067705;28;20025;-75
2021/06/10 10:07:49;;;;;;;13.47;9.70;;;;;;;30.98;40.79;101426.00;5061213;28;20101;-75
2021/06/10 10:10:15;;;;;;;13.27;8.25;;;;;;;29.58;43.92;101419.75;5061988;28;20063;-74
2021/06/10 10:12:43;;;;;;;13.07;7.55;;;;;;;29.87;45.63;101425.53;5059553;28;20020;-75
2021/06/10 10:15:10;;;;;;;10.10;6.88;;;;;;;30.51;44.11;101431.59;5060316;28;20519;-75
2021/06/10 10:17:36;;;;;;;12.02;7.28;;;;;;;30.41;44.73;101425.28;5056266;28;20044;-72
2021/06/10 10:20:04;;;;;;;10.55;6.95;;;;;;;30.73;44.16;101426.50;5054215;28;20031;-74
2021/06/10 10:22:31;;;;;;;12.38;9.20;;;;;;;30.54;43.53;101427.88;5047218;28;20021;-73
2021/06/10 10:24:59;;;;;;;14.45;8.63;;;;;;;30.77;42.74;101416.72;5063746;28;20085;-74
2021/06/10 10:27:25;;;;;;;12.00;7.13;;;;;;;30.71;43.72;101421.41;5027081;28;20021;-74
2021/06/10 10:29:51;;;;;;;13.18;7.47;;;;;;;30.98;43.84;101418.44;5067163;28;20082;-74
2021/06/10 10:32:28;;;;;;;12.70;8.23;;;;;;;30.54;44.09;101417.50;5068541;28;20060;-74
2021/06/10 10:35:12;;;;;;;12.43;8.15;;;;;;;30.97;43.38;101414.09;5044239;28;20487;-73
2021/06/10 10:37:38;;;;;;;12.07;7.68;;;;;;;30.94;43.44;101417.06;5062841;28;20096;-74
2021/06/10 10:40:08;;;;;;;15.32;9.00;;;;;;;31.28;41.76;101416.44;5048686;28;20032;-74
2021/06/10 10:42:37;;;;;;;15.45;11.45;;;;;;;30.13;41.38;101410.78;5066323;28;20039;-73
2021/06/10 10:45:30;;;;;;;11.80;7.88;;;;;;;29.88;45.06;101407.63;5055529;28;20381;-74
2021/06/10 10:48:02;;;;;;;11.40;7.85;;;;;;;30.35;44.34;101412.53;5068738;28;20106;-73
2021/06/10 10:50:35;;;;;;;14.18;8.95;;;;;;;30.36;42.92;101411.28;5061196;28;20480;-74
2021/06/10 10:53:01;;;;;;;11.60;8.50;;;;;;;30.85;42.93;101406.03;5052317;28;20020;-74
2021/06/10 10:55:31;;;;;;;12.63;7.97;;;;;;;30.94;43.71;101403.16;5057760;28;20538;-73
2021/06/10 10:57:57;;;;;;;14.67;9.37;;;;;;;30.96;44.08;101407.00;5055208;28;20058;-73
2021/06/10 11:00:50;;;;;;;12.00;9.02;;;;;;;31.05;43.42;101400.56;5056573;28;20056;-74
2021/06/10 11:03:28;;;;;;;18.33;10.07;;;;;;;31.34;42.42;101408.19;5055137;28;20064;-74
2021/06/10 11:05:55;;;;;;;14.60;10.50;;;;;;;31.78;40.23;101406.97;5055297;28;20093;-73
2021/06/10 11:08:26;;;;;;;13.23;10.07;;;;;;;31.70;41.81;101397.44;5058328;28;20113;-74
2021/06/10 11:10:56;;;;;;;11.15;8.30;;;;;;;31.83;42.14;101403.47;5069549;28;20020;-73
2021/06/10 11:13:23;;;;;;;12.57;10.00;;;;;;;31.98;41.23;101400.69;5060030;28;20074;-74
2021/06/10 11:15:50;;;;;;;15.23;9.63;;;;;;;31.80;40.84;101404.44;5070545;28;20115;-74
2021/06/10 11:18:38;;;;;;;13.95;10.57;;;;;;;31.84;40.10;101399.44;5064283;28;20028;-73
2021/06/10 11:21:04;;;;;;;15.98;9.60;;;;;;;31.80;41.76;101398.09;5065814;28;20032;-73
2021/06/10 11:23:29;;;;;;;13.18;8.38;;;;;;;31.93;42.39;101399.34;5053278;28;20024;-75
2021/06/10 11:25:58;;;;;;;14.98;8.98;;;;;;;31.92;42.45;101395.03;5070385;28;20040;-73
2021/06/10 11:28:26;;;;;;;12.35;9.23;;;;;;;31.67;42.49;101394.84;5064051;28;20032;-74
2021/06/10 11:30:54;;;;;;;13.95;7.68;;;;;;;31.58;42.41;101394.94;5069457;28;20029;-74
2021/06/10 11:33:21;;;;;;;13.02;9.13;;;;;;;31.76;41.79;101398.31;5081974;22;20056;-75
2021/06/10 11:35:57;;;;;;;16.60;8.68;;;;;;;31.64;41.38;101399.38;5072367;28;20042;-74
2021/06/10 11:38:24;;;;;;;9.52;8.07;;;;;;;31.42;42.05;101384.28;5073086;28;20040;-75
2021/06/10 11:41:01;;;;;;;15.02;10.00;;;;;;;29.74;42.10;101391.63;5080943;28;20081;-76
2021/06/10 11:43:28;;;;;;;15.68;7.55;;;;;;;30.00;43.75;101396.28;5076908;28;20033;-75
2021/06/10 11:45:58;;;;;;;12.68;7.40;;;;;;;30.35;42.19;101398.63;5081861;28;20066;-76
2021/06/10 11:48:39;;;;;;;13.13;5.88;;;;;;;30.52;42.63;101389.41;5075317;28;20060;-76
2021/06/10 11:51:18;;;;;;;9.57;6.70;;;;;;;31.01;41.45;101384.06;5073068;28;20090;-75
2021/06/10 11:53:44;;;;;;;13.57;5.85;;;;;;;31.22;40.22;101382.16;5079819;28;20045;-76
2021/06/10 11:56:30;;;;;;;9.75;6.40;;;;;;;31.01;40.79;101388.88;5080628;28;20160;-76
2021/06/10 11:59:03;;;;;;;8.80;6.40;;;;;;;31.13;40.55;101380.25;5023246;28;20041;-75
2021/06/10 12:01:29;;;;;;;7.03;5.82;;;;;;;31.32;40.75;101380.06;5013139;28;20045;-75
2021/06/10 12:03:55;;;;;;;9.35;6.13;;;;;;;31.43;39.53;101375.47;5018772;28;20124;-75
2021/06/10 12:06:20;;;;;;;5.90;5.30;;;;;;;31.75;38.12;101376.47;5020090;28;20715;-76
2021/06/10 12:08:49;;;;;;;5.80;4.43;;;;;;;31.51;38.89;101364.72;5019338;28;20041;-75
2021/06/10 12:11:16;;;;;;;4.97;3.88;;;;;;;31.59;37.06;101363.06;5023679;28;20075;-76
2021/06/10 12:13:52;;;;;;;4.65;3.47;;;;;;;31.74;36.64;101372.94;5024026;28;20033;-75
2021/06/10 12:16:18;;;;;;;9.07;4.47;;;;;;;31.79;36.96;101366.66;5022566;28;20049;-76
2021/06/10 12:18:45;;;;;;;6.65;4.43;;;;;;;31.86;37.20;101366.25;5024506;28;20045;-76
2021/06/10 12:21:13;;;;;;;6.38;4.15;;;;;;;32.06;37.39;101353.63;5024812;28;20564;-75
2021/06/10 12:23:42;;;;;;;7.18;4.50;;;;;;;32.05;38.31;101354.91;5025133;28;20046;-76
2021/06/10 12:26:14;;;;;;;11.95;4.70;;;;;;;32.05;38.34;101363.25;5008394;28;20079;-76
2021/06/10 12:28:45;;;;;;;6.15;4.78;;;;;;;32.00;37.72;101361.19;5013268;28;20045;-76
2021/06/10 12:31:21;;;;;;;5.15;4.18;;;;;;;31.98;36.67;101365.19;5006897;28;20122;-76
2021/06/10 12:33:49;;;;;;;7.05;4.93;;;;;;;31.74;37.52;101367.38;5025132;28;20563;-75
2021/06/10 12:36:25;;;;;;;3.90;3.58;;;;;;;31.98;36.52;101360.91;5060505;28;20048;-76
2021/06/10 12:38:56;;;;;;;6.25;4.57;;;;;;;32.02;37.46;101353.84;5085515;28;20032;-75
2021/06/10 12:41:24;;;;;;;5.75;3.83;;;;;;;31.97;36.01;101362.91;5082809;28;20040;-76
2021/06/10 12:43:51;;;;;;;5.20;4.13;;;;;;;31.77;36.18;101355.22;5078355;28;20024;-76
2021/06/10 12:46:17;;;;;;;6.70;4.40;;;;;;;31.65;36.21;101353.53;5078626;28;20028;-76
2021/06/10 12:48:55;;;;;;;7.35;4.53;;;;;;;31.37;35.59;101359.88;5085257;28;20032;-76
2021/06/10 12:51:31;;;;;;;10.63;6.28;;;;;;;31.34;37.50;101350.47;5085158;28;20036;-76
2021/06/10 12:54:10;;;;;;;8.93;5.30;;;;;;;31.41;38.38;101350.13;5087440;28;20020;-76
2021/06/10 12:56:43;;;;;;;8.00;5.50;;;;;;;31.36;38.87;101347.97;5083282;28;20035;-76
2021/06/10 12:59:20;;;;;;;9.05;5.53;;;;;;;31.18;39.04;101342.59;5075799;28;20123;-76
2021/06/10 13:02:05;;;;;;;5.07;3.90;;;;;;;30.96;39.84;101342.19;5079654;28;20028;-76
2021/06/10 13:04:53;;;;;;;9.95;4.22;;;;;;;31.12;39.16;101338.97;5081068;28;20060;-76
2021/06/10 13:07:44;;;;;;;11.10;5.40;;;;;;;30.73;40.14;101340.22;5079193;28;20396;-76
2021/06/10 13:10:30;;;;;;;7.93;5.10;;;;;;;30.94;39.14;101344.69;5079442;28;20035;-76
2021/06/10 13:12:57;;;;;;;12.77;4.80;;;;;;;31.11;39.16;101335.41;5083346;28;20044;-76
2021/06/10 13:15:23;;;;;;;8.77;4.78;;;;;;;31.11;39.11;101326.25;5080646;28;20047;-75
2021/06/10 13:18:05;;;;;;;6.03;4.75;;;;;;;31.11;38.90;101321.47;5084348;28;20105;-77
2021/06/10 13:20:46;;;;;;;6.68;3.92;;;;;;;31.07;38.22;101326.47;5082162;28;20077;-76
2021/06/10 13:23:14;;;;;;;6.15;3.83;;;;;;;30.98;38.45;101331.34;5080281;28;20042;-76
2021/06/10 13:25:40;;;;;;;7.78;3.97;;;;;;;31.18;37.79;101337.03;5083278;28;20039;-75
2021/06/10 13:28:10;;;;;;;6.18;4.40;;;;;;;31.05;38.88;101322.63;5080025;28;20036;-75
2021/06/10 13:30:35;;;;;;;7.30;4.80;;;;;;;31.39;39.38;101329.56;5073926;28;20033;-76
2021/06/10 13:33:01;;;;;;;6.50;4.97;;;;;;;31.12;39.96;101322.25;5083148;28;20152;-75
2021/06/10 13:35:28;;;;;;;8.35;4.63;;;;;;;30.96;40.17;101329.06;5080273;28;20032;-76
2021/06/10 13:37:53;;;;;;;7.32;5.40;;;;;;;30.75;38.95;101332.16;5077128;28;20136;-76
2021/06/10 13:40:19;;;;;;;5.28;4.72;;;;;;;30.90;40.60;101327.41;5080864;28;20064;-76
2021/06/10 13:42:51;;;;;;;9.18;4.10;;;;;;;30.94;40.49;101322.44;5083122;28;20035;-76
2021/06/10 13:45:18;;;;;;;7.85;4.00;;;;;;;30.92;41.15;101325.69;5074501;28;20043;-76
2021/06/10 13:47:44;;;;;;;5.43;4.30;;;;;;;31.04;38.30;101315.53;5082516;28;20042;-76
2021/06/10 13:50:10;;;;;;;8.35;3.63;;;;;;;31.00;38.41;101314.94;5088030;28;20718;-76